sensor_id;sensor_type;location;lat;lon;timestamp;temperature;humidity
30399;DHT22;17195;50.838;7.214;2023-04-06T00:00:34;1.00;99.90
30399;DHT22;17195;50.838;7.214;2023-04-06T00:02:59;1.00;99.90
30399;DHT22;17195;50.838;7.214;2023-04-06T00:05:25;0.90;99.90
30399;DHT22;17195;50.838;7.214;2023-04-06T00:07:51;1.00;99.90
30399;DHT22;17195;50.838;7.214;2023-04-06T00:10:18;0.90;99.90
30399;DHT22;17195;50.838;7.214;2023-04-06T00:12:43;0.90;99.90
30399;DHT22;17195;50.838;7.214;2023-04-06T00:15:09;0.90;99.90
30399;DHT22;17195;50.838;7.214;2023-04-06T00:17:35;0.80;99.90
30399;DHT22;17195;50.838;7.214;2023-04-06T00:20:01;0.80;99.90
30399;DHT22;17195;50.838;7.214;2023-04-06T00:22:26;0.80;99.90
30399;DHT22;17195;50.838;7.214;2023-04-06T00:24:52;0.80;99.90
30399;DHT22;17195;50.838;7.214;2023-04-06T00:27:17;0.80;99.90
30399;DHT22;17195;50.838;7.214;2023-04-06T00:29:43;0.80;99.90
30399;DHT22;17195;50.838;7.214;2023-04-06T00:32:09;0.80;99.90
30399;DHT22;17195;50.838;7.214;2023-04-06T00:34:35;0.70;99.90
30399;DHT22;17195;50.838;7.214;2023-04-06T00:37:00;0.70;99.90
30399;DHT22;17195;50.838;7.214;2023-04-06T00:39:26;0.70;99.90
30399;DHT22;17195;50.838;7.214;2023-04-06T00:41:52;0.60;99.90
30399;DHT22;17195;50.838;7.214;2023-04-06T00:44:19;0.60;99.90
30399;DHT22;17195;50.838;7.214;2023-04-06T00:46:45;0.60;99.90
30399;DHT22;17195;50.838;7.214;2023-04-06T00:49:10;0.60;99.90
30399;DHT22;17195;50.838;7.214;2023-04-06T00:51:36;0.60;99.90
30399;DHT22;17195;50.838;7.214;2023-04-06T00:54:02;0.60;99.90
30399;DHT22;17195;50.838;7.214;2023-04-06T00:56:27;0.60;99.90
30399;DHT22;17195;50.838;7.214;2023-04-06T00:58:53;0.50;99.90
30399;DHT22;17195;50.838;7.214;2023-04-06T01:01:18;0.50;99.90
30399;DHT22;17195;50.838;7.214;2023-04-06T01:03:44;0.50;99.90
30399;DHT22;17195;50.838;7.214;2023-04-06T01:06:13;0.50;99.90
30399;DHT22;17195;50.838;7.214;2023-04-06T01:08:39;0.40;99.90
30399;DHT22;17195;50.838;7.214;2023-04-06T01:11:05;0.50;99.90
30399;DHT22;17195;50.838;7.214;2023-04-06T01:13:30;0.40;99.90
30399;DHT22;17195;50.838;7.214;2023-04-06T01:15:56;0.40;99.90
30399;DHT22;17195;50.838;7.214;2023-04-06T01:18:26;0.30;99.90
30399;DHT22;17195;50.838;7.214;2023-04-06T01:20:52;0.30;99.90
30399;DHT22;17195;50.838;7.214;2023-04-06T01:23:17;0.30;99.90
30399;DHT22;17195;50.838;7.214;2023-04-06T01:25:43;0.30;99.90
30399;DHT22;17195;50.838;7.214;2023-04-06T01:28:08;0.30;99.90
30399;DHT22;17195;50.838;7.214;2023-04-06T01:30:34;0.20;99.90
30399;DHT22;17195;50.838;7.214;2023-04-06T01:33:00;0.20;99.90
30399;DHT22;17195;50.838;7.214;2023-04-06T01:35:26;0.20;99.90
30399;DHT22;17195;50.838;7.214;2023-04-06T01:37:52;0.20;99.90
30399;DHT22;17195;50.838;7.214;2023-04-06T01:40:18;0.10;99.90
30399;DHT22;17195;50.838;7.214;2023-04-06T01:42:43;0.10;99.90
30399;DHT22;17195;50.838;7.214;2023-04-06T01:45:09;0.10;99.90
30399;DHT22;17195;50.838;7.214;2023-04-06T01:47:35;0.10;99.90
30399;DHT22;17195;50.838;7.214;2023-04-06T01:50:00;0.10;99.90
30399;DHT22;17195;50.838;7.214;2023-04-06T01:52:28;0.10;99.90
30399;DHT22;17195;50.838;7.214;2023-04-06T01:54:53;0.10;99.90
30399;DHT22;17195;50.838;7.214;2023-04-06T01:57:19;0.10;99.90
30399;DHT22;17195;50.838;7.214;2023-04-06T01:59:45;0.00;99.90
30399;DHT22;17195;50.838;7.214;2023-04-06T02:02:11;0.00;99.90
30399;DHT22;17195;50.838;7.214;2023-04-06T02:04:38;0.00;99.90
30399;DHT22;17195;50.838;7.214;2023-04-06T02:07:03;0.00;99.90
30399;DHT22;17195;50.838;7.214;2023-04-06T02:09:29;0.00;99.90
30399;DHT22;17195;50.838;7.214;2023-04-06T02:11:54;0.00;99.90
30399;DHT22;17195;50.838;7.214;2023-04-06T02:14:23;0.00;99.90
30399;DHT22;17195;50.838;7.214;2023-04-06T02:16:48;0.00;99.90
30399;DHT22;17195;50.838;7.214;2023-04-06T02:19:14;0.00;99.90
30399;DHT22;17195;50.838;7.214;2023-04-06T02:21:40;0.00;99.90
30399;DHT22;17195;50.838;7.214;2023-04-06T02:24:05;0.00;99.90
30399;DHT22;17195;50.838;7.214;2023-04-06T02:26:31;-0.10;99.90
30399;DHT22;17195;50.838;7.214;2023-04-06T02:28:57;-0.10;99.90
30399;DHT22;17195;50.838;7.214;2023-04-06T02:31:22;-0.10;99.90
30399;DHT22;17195;50.838;7.214;2023-04-06T02:33:48;-0.10;99.90
30399;DHT22;17195;50.838;7.214;2023-04-06T02:36:13;-0.10;99.90
30399;DHT22;17195;50.838;7.214;2023-04-06T02:38:39;-0.10;99.90
30399;DHT22;17195;50.838;7.214;2023-04-06T02:41:04;-0.10;99.90
30399;DHT22;17195;50.838;7.214;2023-04-06T02:43:30;-0.10;99.90
30399;DHT22;17195;50.838;7.214;2023-04-06T02:45:55;-0.10;99.90
30399;DHT22;17195;50.838;7.214;2023-04-06T02:48:21;-0.20;99.90
30399;DHT22;17195;50.838;7.214;2023-04-06T02:50:46;-0.20;99.90
30399;DHT22;17195;50.838;7.214;2023-04-06T02:53:12;-0.20;99.90
30399;DHT22;17195;50.838;7.214;2023-04-06T02:55:37;-0.30;99.90
30399;DHT22;17195;50.838;7.214;2023-04-06T02:58:03;-0.30;99.90
30399;DHT22;17195;50.838;7.214;2023-04-06T03:00:29;-0.30;99.90
30399;DHT22;17195;50.838;7.214;2023-04-06T03:02:54;-0.30;99.90
30399;DHT22;17195;50.838;7.214;2023-04-06T03:05:20;-0.20;99.90
30399;DHT22;17195;50.838;7.214;2023-04-06T03:07:46;-0.30;99.90
30399;DHT22;17195;50.838;7.214;2023-04-06T03:10:11;-0.30;99.90
30399;DHT22;17195;50.838;7.214;2023-04-06T03:12:37;-0.30;99.90
30399;DHT22;17195;50.838;7.214;2023-04-06T03:15:02;-0.30;99.90
30399;DHT22;17195;50.838;7.214;2023-04-06T03:17:28;-0.30;99.90
30399;DHT22;17195;50.838;7.214;2023-04-06T03:19:54;-0.30;99.90
30399;DHT22;17195;50.838;7.214;2023-04-06T03:22:19;-0.30;99.90
30399;DHT22;17195;50.838;7.214;2023-04-06T03:24:45;-0.40;99.90
30399;DHT22;17195;50.838;7.214;2023-04-06T03:27:11;-0.40;99.90
30399;DHT22;17195;50.838;7.214;2023-04-06T03:29:36;-0.40;99.90
30399;DHT22;17195;50.838;7.214;2023-04-06T03:32:02;-0.40;99.90
30399;DHT22;17195;50.838;7.214;2023-04-06T03:34:28;-0.40;99.90
30399;DHT22;17195;50.838;7.214;2023-04-06T03:36:53;-0.50;99.90
30399;DHT22;17195;50.838;7.214;2023-04-06T03:39:19;-0.50;99.90
30399;DHT22;17195;50.838;7.214;2023-04-06T03:41:44;-0.50;99.90
30399;DHT22;17195;50.838;7.214;2023-04-06T03:44:10;-0.50;99.90
30399;DHT22;17195;50.838;7.214;2023-04-06T03:46:35;-0.50;99.90
30399;DHT22;17195;50.838;7.214;2023-04-06T03:49:01;-0.60;99.90
30399;DHT22;17195;50.838;7.214;2023-04-06T03:51:27;-0.60;99.90
30399;DHT22;17195;50.838;7.214;2023-04-06T03:53:53;-0.60;99.90
30399;DHT22;17195;50.838;7.214;2023-04-06T03:56:18;-0.60;99.90
30399;DHT22;17195;50.838;7.214;2023-04-06T03:58:44;-0.60;99.90
30399;DHT22;17195;50.838;7.214;2023-04-06T04:01:16;-0.60;99.90
30399;DHT22;17195;50.838;7.214;2023-04-06T04:03:42;-0.60;99.90
30399;DHT22;17195;50.838;7.214;2023-04-06T04:06:07;-0.60;99.90
30399;DHT22;17195;50.838;7.214;2023-04-06T04:08:33;-0.60;99.90
30399;DHT22;17195;50.838;7.214;2023-04-06T04:10:58;-0.60;99.90
30399;DHT22;17195;50.838;7.214;2023-04-06T04:13:24;-0.60;99.90
30399;DHT22;17195;50.838;7.214;2023-04-06T04:15:50;-0.60;99.90
30399;DHT22;17195;50.838;7.214;2023-04-06T04:18:16;-0.70;99.90
30399;DHT22;17195;50.838;7.214;2023-04-06T04:20:41;-0.70;99.90
30399;DHT22;17195;50.838;7.214;2023-04-06T04:23:07;-0.70;99.90
30399;DHT22;17195;50.838;7.214;2023-04-06T04:25:32;-0.70;99.90
30399;DHT22;17195;50.838;7.214;2023-04-06T04:27:58;-0.70;99.90
30399;DHT22;17195;50.838;7.214;2023-04-06T04:30:23;-0.70;99.90
30399;DHT22;17195;50.838;7.214;2023-04-06T04:32:49;-0.70;99.90
30399;DHT22;17195;50.838;7.214;2023-04-06T04:35:14;-0.80;99.90
30399;DHT22;17195;50.838;7.214;2023-04-06T04:37:41;-0.80;99.90
30399;DHT22;17195;50.838;7.214;2023-04-06T04:40:07;-0.80;99.90
30399;DHT22;17195;50.838;7.214;2023-04-06T04:42:33;-0.80;99.90
30399;DHT22;17195;50.838;7.214;2023-04-06T04:44:59;-0.80;99.90
30399;DHT22;17195;50.838;7.214;2023-04-06T04:47:25;-0.90;99.90
30399;DHT22;17195;50.838;7.214;2023-04-06T04:49:50;-0.90;99.90
30399;DHT22;17195;50.838;7.214;2023-04-06T04:52:16;-0.90;99.90
30399;DHT22;17195;50.838;7.214;2023-04-06T04:54:41;-0.90;99.90
30399;DHT22;17195;50.838;7.214;2023-04-06T04:57:07;-0.90;99.90
30399;DHT22;17195;50.838;7.214;2023-04-06T04:59:34;-0.90;99.90
30399;DHT22;17195;50.838;7.214;2023-04-06T05:01:59;-0.80;99.90
30399;DHT22;17195;50.838;7.214;2023-04-06T05:04:25;-0.80;99.90
30399;DHT22;17195;50.838;7.214;2023-04-06T05:07:07;-0.80;99.90
30399;DHT22;17195;50.838;7.214;2023-04-06T05:09:33;-0.80;99.90
30399;DHT22;17195;50.838;7.214;2023-04-06T05:12:00;-0.80;99.90
30399;DHT22;17195;50.838;7.214;2023-04-06T05:14:26;-0.80;99.90
30399;DHT22;17195;50.838;7.214;2023-04-06T05:16:52;-0.80;99.90
30399;DHT22;17195;50.838;7.214;2023-04-06T05:19:17;-0.70;99.90
30399;DHT22;17195;50.838;7.214;2023-04-06T05:21:43;-0.60;99.90
30399;DHT22;17195;50.838;7.214;2023-04-06T05:24:08;-0.60;99.90
30399;DHT22;17195;50.838;7.214;2023-04-06T05:26:34;-0.60;99.90
30399;DHT22;17195;50.838;7.214;2023-04-06T05:29:00;-0.50;99.90
30399;DHT22;17195;50.838;7.214;2023-04-06T05:31:25;-0.50;99.90
30399;DHT22;17195;50.838;7.214;2023-04-06T05:33:51;-0.40;99.90
30399;DHT22;17195;50.838;7.214;2023-04-06T05:36:17;-0.30;99.90
30399;DHT22;17195;50.838;7.214;2023-04-06T05:38:42;-0.20;99.90
30399;DHT22;17195;50.838;7.214;2023-04-06T05:41:08;-0.20;99.90
30399;DHT22;17195;50.838;7.214;2023-04-06T05:43:33;-0.10;99.90
30399;DHT22;17195;50.838;7.214;2023-04-06T05:45:59;-0.10;99.90
30399;DHT22;17195;50.838;7.214;2023-04-06T05:48:24;0.00;99.90
30399;DHT22;17195;50.838;7.214;2023-04-06T05:50:50;0.10;99.90
30399;DHT22;17195;50.838;7.214;2023-04-06T05:53:16;0.20;99.90
30399;DHT22;17195;50.838;7.214;2023-04-06T05:55:42;0.20;99.90
30399;DHT22;17195;50.838;7.214;2023-04-06T05:58:07;0.30;99.90
30399;DHT22;17195;50.838;7.214;2023-04-06T06:00:33;0.40;99.90
30399;DHT22;17195;50.838;7.214;2023-04-06T06:02:58;0.50;99.90
30399;DHT22;17195;50.838;7.214;2023-04-06T06:05:24;0.60;99.90
30399;DHT22;17195;50.838;7.214;2023-04-06T06:07:49;0.70;99.90
30399;DHT22;17195;50.838;7.214;2023-04-06T06:10:15;0.80;99.90
30399;DHT22;17195;50.838;7.214;2023-04-06T06:12:41;0.90;99.90
30399;DHT22;17195;50.838;7.214;2023-04-06T06:15:07;0.90;99.90
30399;DHT22;17195;50.838;7.214;2023-04-06T06:17:32;1.00;99.90
30399;DHT22;17195;50.838;7.214;2023-04-06T06:19:59;1.20;99.90
30399;DHT22;17195;50.838;7.214;2023-04-06T06:22:25;1.30;99.90
30399;DHT22;17195;50.838;7.214;2023-04-06T06:24:50;1.40;99.90
30399;DHT22;17195;50.838;7.214;2023-04-06T06:27:16;1.60;99.90
30399;DHT22;17195;50.838;7.214;2023-04-06T06:29:41;1.60;99.90
30399;DHT22;17195;50.838;7.214;2023-04-06T06:32:07;1.70;99.90
30399;DHT22;17195;50.838;7.214;2023-04-06T06:34:34;1.90;99.90
30399;DHT22;17195;50.838;7.214;2023-04-06T06:37:00;2.00;99.90
30399;DHT22;17195;50.838;7.214;2023-04-06T06:39:27;2.20;99.90
30399;DHT22;17195;50.838;7.214;2023-04-06T06:41:53;2.30;99.90
30399;DHT22;17195;50.838;7.214;2023-04-06T06:44:20;2.40;99.90
30399;DHT22;17195;50.838;7.214;2023-04-06T06:46:47;2.60;99.90
30399;DHT22;17195;50.838;7.214;2023-04-06T06:49:12;2.70;99.90
30399;DHT22;17195;50.838;7.214;2023-04-06T06:51:39;2.90;99.90
30399;DHT22;17195;50.838;7.214;2023-04-06T06:54:05;3.00;99.90
30399;DHT22;17195;50.838;7.214;2023-04-06T06:56:31;3.10;99.90
30399;DHT22;17195;50.838;7.214;2023-04-06T06:58:56;3.30;99.90
30399;DHT22;17195;50.838;7.214;2023-04-06T07:01:22;3.50;99.90
30399;DHT22;17195;50.838;7.214;2023-04-06T07:03:47;3.60;99.90
30399;DHT22;17195;50.838;7.214;2023-04-06T07:06:13;3.80;99.90
30399;DHT22;17195;50.838;7.214;2023-04-06T07:08:38;3.90;99.90
30399;DHT22;17195;50.838;7.214;2023-04-06T07:11:04;4.00;99.90
30399;DHT22;17195;50.838;7.214;2023-04-06T07:13:29;4.20;99.90
30399;DHT22;17195;50.838;7.214;2023-04-06T07:15:55;4.30;99.90
30399;DHT22;17195;50.838;7.214;2023-04-06T07:18:22;4.50;99.90
30399;DHT22;17195;50.838;7.214;2023-04-06T07:20:48;4.70;99.90
30399;DHT22;17195;50.838;7.214;2023-04-06T07:23:13;4.80;99.90
30399;DHT22;17195;50.838;7.214;2023-04-06T07:25:39;5.00;99.90
30399;DHT22;17195;50.838;7.214;2023-04-06T07:28:05;5.20;99.90
30399;DHT22;17195;50.838;7.214;2023-04-06T07:30:30;5.30;99.90
30399;DHT22;17195;50.838;7.214;2023-04-06T07:32:56;5.60;99.90
30399;DHT22;17195;50.838;7.214;2023-04-06T07:35:24;5.80;99.90
30399;DHT22;17195;50.838;7.214;2023-04-06T07:37:49;6.00;99.90
30399;DHT22;17195;50.838;7.214;2023-04-06T07:40:15;6.20;99.90
30399;DHT22;17195;50.838;7.214;2023-04-06T07:42:41;6.40;99.90
30399;DHT22;17195;50.838;7.214;2023-04-06T07:45:07;6.70;99.90
30399;DHT22;17195;50.838;7.214;2023-04-06T07:47:33;7.00;99.90
30399;DHT22;17195;50.838;7.214;2023-04-06T07:49:58;7.20;99.90
30399;DHT22;17195;50.838;7.214;2023-04-06T07:52:24;7.50;99.90
30399;DHT22;17195;50.838;7.214;2023-04-06T07:54:49;7.70;99.90
30399;DHT22;17195;50.838;7.214;2023-04-06T07:57:15;8.00;99.90
30399;DHT22;17195;50.838;7.214;2023-04-06T07:59:41;8.30;99.30
30399;DHT22;17195;50.838;7.214;2023-04-06T08:02:06;8.50;97.90
30399;DHT22;17195;50.838;7.214;2023-04-06T08:04:32;8.80;97.00
30399;DHT22;17195;50.838;7.214;2023-04-06T08:06:57;9.00;96.60
30399;DHT22;17195;50.838;7.214;2023-04-06T08:09:23;9.10;96.10
30399;DHT22;17195;50.838;7.214;2023-04-06T08:11:49;9.30;95.60
30399;DHT22;17195;50.838;7.214;2023-04-06T08:14:15;9.50;94.60
30399;DHT22;17195;50.838;7.214;2023-04-06T08:16:43;9.60;94.50
30399;DHT22;17195;50.838;7.214;2023-04-06T08:19:08;9.70;94.00
30399;DHT22;17195;50.838;7.214;2023-04-06T08:21:37;9.80;93.00
30399;DHT22;17195;50.838;7.214;2023-04-06T08:24:03;9.80;92.90
30399;DHT22;17195;50.838;7.214;2023-04-06T08:26:29;9.90;92.80
30399;DHT22;17195;50.838;7.214;2023-04-06T08:28:54;9.80;92.60
30399;DHT22;17195;50.838;7.214;2023-04-06T08:31:20;9.90;92.40
30399;DHT22;17195;50.838;7.214;2023-04-06T08:33:46;10.00;92.40
30399;DHT22;17195;50.838;7.214;2023-04-06T08:36:13;10.20;92.30
30399;DHT22;17195;50.838;7.214;2023-04-06T08:38:39;10.50;91.90
30399;DHT22;17195;50.838;7.214;2023-04-06T08:41:12;10.70;91.30
30399;DHT22;17195;50.838;7.214;2023-04-06T08:43:59;10.90;90.70
30399;DHT22;17195;50.838;7.214;2023-04-06T08:46:25;11.10;90.30
30399;DHT22;17195;50.838;7.214;2023-04-06T08:48:56;11.10;90.00
30399;DHT22;17195;50.838;7.214;2023-04-06T08:51:23;11.20;90.00
30399;DHT22;17195;50.838;7.214;2023-04-06T08:53:49;11.40;90.30
30399;DHT22;17195;50.838;7.214;2023-04-06T08:56:15;11.50;89.20
30399;DHT22;17195;50.838;7.214;2023-04-06T08:58:41;11.70;88.70
30399;DHT22;17195;50.838;7.214;2023-04-06T09:01:08;11.80;88.10
30399;DHT22;17195;50.838;7.214;2023-04-06T09:03:40;12.00;87.70
30399;DHT22;17195;50.838;7.214;2023-04-06T09:06:06;12.10;86.80
30399;DHT22;17195;50.838;7.214;2023-04-06T09:08:38;12.30;85.70
30399;DHT22;17195;50.838;7.214;2023-04-06T09:11:04;12.40;85.50
30399;DHT22;17195;50.838;7.214;2023-04-06T09:13:30;12.50;86.00
30399;DHT22;17195;50.838;7.214;2023-04-06T09:16:03;12.60;85.90
30399;DHT22;17195;50.838;7.214;2023-04-06T09:18:33;12.70;85.60
30399;DHT22;17195;50.838;7.214;2023-04-06T09:21:01;12.90;84.10
30399;DHT22;17195;50.838;7.214;2023-04-06T09:23:27;13.10;83.70
30399;DHT22;17195;50.838;7.214;2023-04-06T09:26:09;13.10;83.20
30399;DHT22;17195;50.838;7.214;2023-04-06T09:28:43;13.30;82.30
30399;DHT22;17195;50.838;7.214;2023-04-06T09:31:09;13.20;83.10
30399;DHT22;17195;50.838;7.214;2023-04-06T09:33:38;13.30;83.30
30399;DHT22;17195;50.838;7.214;2023-04-06T09:36:04;13.40;82.40
30399;DHT22;17195;50.838;7.214;2023-04-06T09:38:30;13.50;82.20
30399;DHT22;17195;50.838;7.214;2023-04-06T09:40:55;13.50;81.50
30399;DHT22;17195;50.838;7.214;2023-04-06T09:43:26;13.60;80.50
30399;DHT22;17195;50.838;7.214;2023-04-06T09:45:52;13.60;79.80
30399;DHT22;17195;50.838;7.214;2023-04-06T09:48:19;13.60;79.90
30399;DHT22;17195;50.838;7.214;2023-04-06T09:50:46;13.70;80.70
30399;DHT22;17195;50.838;7.214;2023-04-06T09:53:13;13.90;78.70
30399;DHT22;17195;50.838;7.214;2023-04-06T09:55:43;14.00;79.20
30399;DHT22;17195;50.838;7.214;2023-04-06T09:58:13;14.30;79.00
30399;DHT22;17195;50.838;7.214;2023-04-06T10:01:07;14.50;78.20
30399;DHT22;17195;50.838;7.214;2023-04-06T10:03:51;14.70;77.20
30399;DHT22;17195;50.838;7.214;2023-04-06T10:06:20;15.00;75.60
30399;DHT22;17195;50.838;7.214;2023-04-06T10:08:47;15.20;75.50
30399;DHT22;17195;50.838;7.214;2023-04-06T10:11:15;15.30;75.10
30399;DHT22;17195;50.838;7.214;2023-04-06T10:13:41;15.30;74.80
30399;DHT22;17195;50.838;7.214;2023-04-06T10:16:08;15.20;72.80
30399;DHT22;17195;50.838;7.214;2023-04-06T10:18:34;15.00;72.20
30399;DHT22;17195;50.838;7.214;2023-04-06T10:21:06;14.90;72.50
30399;DHT22;17195;50.838;7.214;2023-04-06T10:23:39;14.90;73.50
30399;DHT22;17195;50.838;7.214;2023-04-06T10:26:16;15.00;72.00
30399;DHT22;17195;50.838;7.214;2023-04-06T10:28:42;15.20;72.00
30399;DHT22;17195;50.838;7.214;2023-04-06T10:31:08;15.40;71.40
30399;DHT22;17195;50.838;7.214;2023-04-06T10:33:34;15.50;70.80
30399;DHT22;17195;50.838;7.214;2023-04-06T10:36:22;15.60;70.20
30399;DHT22;17195;50.838;7.214;2023-04-06T10:38:54;15.60;70.80
30399;DHT22;17195;50.838;7.214;2023-04-06T10:41:20;15.60;70.00
30399;DHT22;17195;50.838;7.214;2023-04-06T10:43:55;15.50;70.00
30399;DHT22;17195;50.838;7.214;2023-04-06T10:46:26;15.30;69.40
30399;DHT22;17195;50.838;7.214;2023-04-06T10:48:51;15.30;68.70
30399;DHT22;17195;50.838;7.214;2023-04-06T10:51:18;15.70;69.00
30399;DHT22;17195;50.838;7.214;2023-04-06T10:53:46;15.80;67.60
30399;DHT22;17195;50.838;7.214;2023-04-06T10:56:17;15.90;67.10
30399;DHT22;17195;50.838;7.214;2023-04-06T10:58:53;15.90;66.50
30399;DHT22;17195;50.838;7.214;2023-04-06T11:01:23;15.80;66.20
30399;DHT22;17195;50.838;7.214;2023-04-06T11:03:55;15.70;65.60
30399;DHT22;17195;50.838;7.214;2023-04-06T11:06:23;15.30;65.60
30399;DHT22;17195;50.838;7.214;2023-04-06T11:08:49;15.70;67.30
30399;DHT22;17195;50.838;7.214;2023-04-06T11:11:20;15.90;65.90
30399;DHT22;17195;50.838;7.214;2023-04-06T11:16:18;15.80;65.10
30399;DHT22;17195;50.838;7.214;2023-04-06T11:18:52;16.00;65.10
30399;DHT22;17195;50.838;7.214;2023-04-06T11:21:19;15.90;64.50
30399;DHT22;17195;50.838;7.214;2023-04-06T11:23:44;16.00;66.80
30399;DHT22;17195;50.838;7.214;2023-04-06T11:26:14;16.10;64.70
30399;DHT22;17195;50.838;7.214;2023-04-06T11:28:43;16.20;63.60
30399;DHT22;17195;50.838;7.214;2023-04-06T11:31:11;16.40;63.00
30399;DHT22;17195;50.838;7.214;2023-04-06T11:33:38;16.40;63.40
30399;DHT22;17195;50.838;7.214;2023-04-06T11:36:04;16.20;62.70
30399;DHT22;17195;50.838;7.214;2023-04-06T11:38:30;16.10;63.20
30399;DHT22;17195;50.838;7.214;2023-04-06T11:40:56;16.00;62.20
30399;DHT22;17195;50.838;7.214;2023-04-06T11:43:29;15.90;63.10
30399;DHT22;17195;50.838;7.214;2023-04-06T11:46:02;15.90;63.50
30399;DHT22;17195;50.838;7.214;2023-04-06T11:48:28;16.00;62.80
30399;DHT22;17195;50.838;7.214;2023-04-06T11:50:58;16.10;62.20
30399;DHT22;17195;50.838;7.214;2023-04-06T11:53:29;15.90;61.50
30399;DHT22;17195;50.838;7.214;2023-04-06T11:55:55;15.70;62.80
30399;DHT22;17195;50.838;7.214;2023-04-06T11:58:21;15.80;61.90
30399;DHT22;17195;50.838;7.214;2023-04-06T12:00:46;15.90;61.10
30399;DHT22;17195;50.838;7.214;2023-04-06T12:03:12;15.80;61.50
30399;DHT22;17195;50.838;7.214;2023-04-06T12:05:38;15.60;62.20
30399;DHT22;17195;50.838;7.214;2023-04-06T12:08:04;15.60;62.80
30399;DHT22;17195;50.838;7.214;2023-04-06T12:10:29;15.70;62.70
30399;DHT22;17195;50.838;7.214;2023-04-06T12:12:55;15.90;63.20
30399;DHT22;17195;50.838;7.214;2023-04-06T12:15:21;16.30;62.90
30399;DHT22;17195;50.838;7.214;2023-04-06T12:17:47;16.40;61.70
30399;DHT22;17195;50.838;7.214;2023-04-06T12:20:12;16.40;61.70
30399;DHT22;17195;50.838;7.214;2023-04-06T12:22:38;16.30;63.00
30399;DHT22;17195;50.838;7.214;2023-04-06T12:25:05;16.30;62.60
30399;DHT22;17195;50.838;7.214;2023-04-06T12:27:32;16.10;62.40
30399;DHT22;17195;50.838;7.214;2023-04-06T12:29:57;16.00;61.20
30399;DHT22;17195;50.838;7.214;2023-04-06T12:32:23;15.70;61.60
30399;DHT22;17195;50.838;7.214;2023-04-06T12:34:49;15.50;62.30
30399;DHT22;17195;50.838;7.214;2023-04-06T12:37:14;15.40;63.10
30399;DHT22;17195;50.838;7.214;2023-04-06T12:39:40;15.50;62.90
30399;DHT22;17195;50.838;7.214;2023-04-06T12:42:06;15.50;62.40
30399;DHT22;17195;50.838;7.214;2023-04-06T12:44:32;15.50;63.30
30399;DHT22;17195;50.838;7.214;2023-04-06T12:46:57;15.50;61.40
30399;DHT22;17195;50.838;7.214;2023-04-06T12:49:23;15.30;63.30
30399;DHT22;17195;50.838;7.214;2023-04-06T12:51:48;15.30;63.80
30399;DHT22;17195;50.838;7.214;2023-04-06T12:54:14;15.30;62.30
30399;DHT22;17195;50.838;7.214;2023-04-06T12:56:39;15.30;61.70
30399;DHT22;17195;50.838;7.214;2023-04-06T12:59:06;15.30;61.90
30399;DHT22;17195;50.838;7.214;2023-04-06T13:01:32;15.30;62.20
30399;DHT22;17195;50.838;7.214;2023-04-06T13:03:58;15.40;62.20
30399;DHT22;17195;50.838;7.214;2023-04-06T13:06:24;15.40;62.80
30399;DHT22;17195;50.838;7.214;2023-04-06T13:08:53;15.50;64.20
30399;DHT22;17195;50.838;7.214;2023-04-06T13:11:18;15.50;60.50
30399;DHT22;17195;50.838;7.214;2023-04-06T13:13:45;15.40;60.90
30399;DHT22;17195;50.838;7.214;2023-04-06T13:16:11;15.40;60.40
30399;DHT22;17195;50.838;7.214;2023-04-06T13:18:37;15.40;60.60
30399;DHT22;17195;50.838;7.214;2023-04-06T13:21:04;15.30;61.20
30399;DHT22;17195;50.838;7.214;2023-04-06T13:23:30;15.00;60.70
30399;DHT22;17195;50.838;7.214;2023-04-06T13:25:59;14.90;62.30
30399;DHT22;17195;50.838;7.214;2023-04-06T13:28:25;14.90;62.50
30399;DHT22;17195;50.838;7.214;2023-04-06T13:30:51;14.90;62.30
30399;DHT22;17195;50.838;7.214;2023-04-06T13:33:17;14.90;62.20
30399;DHT22;17195;50.838;7.214;2023-04-06T13:35:46;14.90;63.00
30399;DHT22;17195;50.838;7.214;2023-04-06T13:38:12;14.90;63.50
30399;DHT22;17195;50.838;7.214;2023-04-06T13:40:41;14.90;64.40
30399;DHT22;17195;50.838;7.214;2023-04-06T13:43:06;14.80;65.10
30399;DHT22;17195;50.838;7.214;2023-04-06T13:45:32;14.70;65.60
30399;DHT22;17195;50.838;7.214;2023-04-06T13:47:58;14.70;66.10
30399;DHT22;17195;50.838;7.214;2023-04-06T13:50:26;14.80;67.00
30399;DHT22;17195;50.838;7.214;2023-04-06T13:52:52;14.70;66.00
30399;DHT22;17195;50.838;7.214;2023-04-06T13:55:18;14.40;66.70
30399;DHT22;17195;50.838;7.214;2023-04-06T13:57:43;14.30;66.60
30399;DHT22;17195;50.838;7.214;2023-04-06T14:00:10;14.00;67.00
30399;DHT22;17195;50.838;7.214;2023-04-06T14:02:38;13.90;68.10
30399;DHT22;17195;50.838;7.214;2023-04-06T14:05:04;13.80;68.80
30399;DHT22;17195;50.838;7.214;2023-04-06T14:07:29;13.50;69.40
30399;DHT22;17195;50.838;7.214;2023-04-06T14:09:55;13.30;70.90
30399;DHT22;17195;50.838;7.214;2023-04-06T14:12:21;13.10;72.00
30399;DHT22;17195;50.838;7.214;2023-04-06T14:14:46;13.00;72.90
30399;DHT22;17195;50.838;7.214;2023-04-06T14:17:12;12.80;74.40
30399;DHT22;17195;50.838;7.214;2023-04-06T14:19:38;12.60;74.70
30399;DHT22;17195;50.838;7.214;2023-04-06T14:22:04;12.50;76.10
30399;DHT22;17195;50.838;7.214;2023-04-06T14:24:30;12.40;75.80
30399;DHT22;17195;50.838;7.214;2023-04-06T14:26:56;12.30;76.50
30399;DHT22;17195;50.838;7.214;2023-04-06T14:29:22;12.20;78.10
30399;DHT22;17195;50.838;7.214;2023-04-06T14:31:48;12.20;76.40
30399;DHT22;17195;50.838;7.214;2023-04-06T14:34:14;12.30;76.80
30399;DHT22;17195;50.838;7.214;2023-04-06T14:36:41;12.30;77.40
30399;DHT22;17195;50.838;7.214;2023-04-06T14:39:07;12.30;78.10
30399;DHT22;17195;50.838;7.214;2023-04-06T14:41:34;12.30;77.60
30399;DHT22;17195;50.838;7.214;2023-04-06T14:44:00;12.30;77.50
30399;DHT22;17195;50.838;7.214;2023-04-06T14:46:27;12.30;77.70
30399;DHT22;17195;50.838;7.214;2023-04-06T14:48:56;12.30;78.70
30399;DHT22;17195;50.838;7.214;2023-04-06T14:51:23;12.30;79.20
30399;DHT22;17195;50.838;7.214;2023-04-06T14:53:49;12.20;79.60
30399;DHT22;17195;50.838;7.214;2023-04-06T14:56:22;12.20;80.50
30399;DHT22;17195;50.838;7.214;2023-04-06T14:58:48;12.10;82.50
30399;DHT22;17195;50.838;7.214;2023-04-06T15:01:15;11.90;86.80
30399;DHT22;17195;50.838;7.214;2023-04-06T15:03:41;11.70;88.70
30399;DHT22;17195;50.838;7.214;2023-04-06T15:06:12;11.40;90.70
30399;DHT22;17195;50.838;7.214;2023-04-06T15:08:38;11.20;92.60
30399;DHT22;17195;50.838;7.214;2023-04-06T15:11:04;11.10;93.50
30399;DHT22;17195;50.838;7.214;2023-04-06T15:13:29;11.10;94.30
30399;DHT22;17195;50.838;7.214;2023-04-06T15:15:55;11.10;94.40
30399;DHT22;17195;50.838;7.214;2023-04-06T15:18:20;11.20;93.60
30399;DHT22;17195;50.838;7.214;2023-04-06T15:20:46;11.20;94.50
30399;DHT22;17195;50.838;7.214;2023-04-06T15:23:11;11.20;93.30
30399;DHT22;17195;50.838;7.214;2023-04-06T15:25:38;11.20;94.20
30399;DHT22;17195;50.838;7.214;2023-04-06T15:28:06;11.10;94.20
30399;DHT22;17195;50.838;7.214;2023-04-06T15:30:32;11.00;94.30
30399;DHT22;17195;50.838;7.214;2023-04-06T15:32:59;10.90;94.70